Kinuura Maru — JD2329 — position and weather

sailwx.info

Track history (hours):
 
Tides and Currents Weather Stations Pressure Air Temp Water Temp Dewpoint Dewpoint Depression Visibility Wind Speed Wind Dir Waves Ship Positions

Kinuura Maru

Last reported at 2018-Feb-25 14:00 UTC. Time now 2018-Feb-25 14:06 UTC.
Position N 33°46' E 131°41'.

Length 165 m; draft 6.5 m.

Type: Cargo ship. MMSI: 431101175.

Date/timePositionNaut miles runAvg speedWind from/ knotsBaromVisibWave heightAir tempDewpointWater temp
2018-Feb-25 14:00N 33°46' E 131°41'1020.2
2018-Feb-25 13:30N 33°47' E 131°29'917.7
2018-Feb-25 13:01N 33°45' E 131°19'815.4
2018-Feb-25 12:30N 33°37' E 131°15'1 1.1
2018-Feb-25 11:59N 33°37' E 131°15'0 0.0
2018-Feb-25 11:29N 33°37' E 131°15'0 0.0
2018-Feb-25 10:59N 33°37' E 131°15'0 0.0
2018-Feb-25 10:29N 33°37' E 131°15'0 0.0
2018-Feb-25 09:59N 33°37' E 131°15'0 0.0
2018-Feb-25 09:29N 33°37' E 131°15'0 0.0
2018-Feb-25 08:59N 33°37' E 131°15'0 0.0
2018-Feb-25 08:29N 33°37' E 131°15'0 0.0
2018-Feb-25 07:59N 33°37' E 131°15'0 0.0
2018-Feb-25 07:29N 33°37' E 131°15'0 0.0
2018-Feb-25 07:00N 33°37' E 131°15'3 5.9
2018-Feb-25 06:30N 33°40' E 131°16'1019.7
2018-Feb-25 06:00N 33°49' E 131°11'816.6
2018-Feb-25 05:31N 33°53' E 131°03'2 4.5
2018-Feb-25 04:58N 33°53' E 130°60'0 0.0
2018-Feb-25 04:28N 33°53' E 130°60'0 0.0
2018-Feb-25 03:58N 33°53' E 130°60'0 0.0
2018-Feb-25 03:28N 33°53' E 130°60'0 0.0
2018-Feb-25 02:58N 33°53' E 130°60'0 0.0
2018-Feb-25 02:28N 33°53' E 130°60'0 0.0
2018-Feb-25 01:58N 33°53' E 130°60'0 0.0
2018-Feb-25 01:28N 33°53' E 130°60'0 0.0
2018-Feb-25 00:58N 33°53' E 130°60'0 0.0
2018-Feb-25 00:28N 33°53' E 130°60'0 0.0
2018-Feb-24 23:58N 33°53' E 130°60'0 0.0
2018-Feb-24 23:28N 33°53' E 130°60'0 0.0
2018-Feb-24 22:58N 33°53' E 130°60'0 0.0
2018-Feb-24 22:28N 33°53' E 130°60'0 0.0
2018-Feb-24 22:00N 33°53' E 130°60'1 1.3
2018-Feb-24 21:30N 33°52' E 130°60'713.2
2018-Feb-24 21:00N 33°53' E 131°08'1020.3
2018-Feb-24 20:30N 33°50' E 131°20'1021.0
2018-Feb-24 20:00N 33°48' E 131°32'1121.1
2018-Feb-24 19:29N 33°46' E 131°45'1021.1
2018-Feb-24 19:00N 33°44' E 131°57'1120.5
2018-Feb-24 18:27N 33°42' E 132°10'1020.8
2018-Feb-24 17:59N 33°46' E 132°21'1020.3
2018-Feb-24 17:28N 33°50' E 132°33'919.9
2018-Feb-24 17:00N 33°57' E 132°41'73 6.7
2018-Feb-24 06:07N 34°26' E 134°02'111.8
2018-Feb-24 06:00N 34°27' E 134°03'815.1
2018-Feb-24 05:28N 34°25' E 134°13'816.2
2018-Feb-24 05:00N 34°25' E 134°22'816.3
2018-Feb-24 04:30N 34°28' E 134°31'816.5
2018-Feb-24 04:00N 34°31' E 134°40'917.7
2018-Feb-24 03:30N 34°35' E 134°50'1019.6
2018-Feb-24 03:01N 34°37' E 135°02'1019.3
2018-Feb-24 02:30N 34°36' E 135°13'815.6
2018-Feb-24 02:00N 34°40' E 135°22'1 2.8
2018-Feb-24 01:30N 34°41' E 135°23'0 0.0
2018-Feb-24 01:00N 34°41' E 135°23'0 0.0
2018-Feb-24 00:30N 34°41' E 135°23'0 0.0
2018-Feb-24 00:00N 34°41' E 135°23'0 0.0
2018-Feb-23 23:30N 34°41' E 135°23'0 0.0
2018-Feb-23 23:01N 34°41' E 135°23'0 0.3
2018-Feb-23 22:31N 34°41' E 135°23'611.3
2018-Feb-23 22:01N 34°37' E 135°19'918.6
2018-Feb-23 21:30N 34°30' E 135°12'917.6
2018-Feb-23 21:01N 34°23' E 135°05'816.6
2018-Feb-23 20:31N 34°16' E 134°59'918.1
2018-Feb-23 20:01N 34°07' E 134°59'918.1
2018-Feb-23 19:31N 33°58' E 134°59'816.9
2018-Feb-23 19:01N 33°50' E 135°02'918.2
2018-Feb-23 18:30N 33°43' E 135°09'1018.4
2018-Feb-23 17:56N 33°35' E 135°17'6315.8
2018-Feb-23 13:56N 33°54' E 136°29'919.7
2018-Feb-23 13:27N 34°00' E 136°38'920.1
2018-Feb-23 13:00N 34°07' E 136°46'2319.1
2018-Feb-23 11:48N 34°25' E 137°01'517.3
2018-Feb-23 11:30N 34°31' E 137°02'713.0
2018-Feb-23 11:00N 34°36' E 136°58'918.8
2018-Feb-23 10:30N 34°42' E 137°06'816.9
2018-Feb-23 10:00N 34°44' E 137°16'3 0.7
2018-Feb-23 06:22N 34°44' E 137°19'512.0
2018-Feb-23 05:59N 34°44' E 137°14'919.0
2018-Feb-23 05:29N 34°40' E 137°03'917.9
2018-Feb-23 05:00N 34°42' E 136°53'1020.0
2018-Feb-23 04:30N 34°50' E 136°46'918.9
2018-Feb-23 04:00N 34°59' E 136°48'611.2
2018-Feb-23 03:31N 35°03' E 136°53'0 0.2
2018-Feb-23 02:59N 35°03' E 136°53'0 0.0
2018-Feb-23 02:29N 35°03' E 136°53'0 0.0
2018-Feb-23 01:59N 35°03' E 136°53'0 0.0
2018-Feb-23 01:29N 35°03' E 136°53'0 0.4
2018-Feb-23 01:00N 35°03' E 136°53'0 0.9
2018-Feb-23 00:29N 35°03' E 136°53'0 0.0
2018-Feb-22 23:59N 35°03' E 136°53'0 0.0
2018-Feb-22 23:29N 35°03' E 136°53'0 0.0
2018-Feb-22 22:59N 35°03' E 136°53'0 0.0
2018-Feb-22 22:29N 35°03' E 136°53'0 0.0
2018-Feb-22 22:00N 35°03' E 136°53'3 6.1
2018-Feb-22 21:30N 35°01' E 136°50'815.8
2018-Feb-22 21:00N 34°53' E 136°47'1019.6
2018-Feb-22 20:30N 34°44' E 136°49'918.6
2018-Feb-22 20:00N 34°37' E 136°57'713.5
2018-Feb-22 19:29N 34°32' E 137°04'918.9
2018-Feb-22 19:00N 34°32' E 137°15'2619.6
2018-Feb-22 17:40N 34°32' E 137°47'319.3
2018-Feb-22 17:30N 34°32' E 137°51'1019.5
2018-Feb-22 17:00N 34°32' E 138°02'1119.0
2018-Feb-22 16:27N 34°32' E 138°15'919.3
2018-Feb-22 15:58N 34°32' E 138°26'1120.1
2018-Feb-22 15:25N 34°32' E 138°40'920.3
2018-Feb-22 14:59N 34°32' E 138°50'919.4
2018-Feb-22 14:30N 34°35' E 139°01'1321.4
2018-Feb-22 13:55N 34°45' E 139°11'1021.0
2018-Feb-22 13:27N 34°52' E 139°19'920.8
2018-Feb-22 13:00N 34°58' E 139°28'1121.2
2018-Feb-22 12:30N 35°04' E 139°38'918.1
2018-Feb-22 12:00N 35°11' E 139°46'612.7
2018-Feb-22 11:30N 35°17' E 139°45'713.0
2018-Feb-22 11:00N 35°23' E 139°41'2 4.0
2018-Feb-22 10:29N 35°23' E 139°39'0 0.0
2018-Feb-22 09:59N 35°23' E 139°39'0 0.0
2018-Feb-22 09:29N 35°23' E 139°39'0 0.0
2018-Feb-22 08:59N 35°23' E 139°39'0 0.0
2018-Feb-22 08:29N 35°23' E 139°39'0 0.0
2018-Feb-22 07:59N 35°23' E 139°39'0 0.0
2018-Feb-22 07:29N 35°23' E 139°39'0 0.0
2018-Feb-22 06:59N 35°23' E 139°39'0 0.0
2018-Feb-22 06:29N 35°23' E 139°39'0 0.0
2018-Feb-22 05:59N 35°23' E 139°39'0 0.0
2018-Feb-22 05:29N 35°23' E 139°39'0 0.0
2018-Feb-22 05:00N 35°23' E 139°39'0 0.0
2018-Feb-22 04:30N 35°23' E 139°39'5 9.2
2018-Feb-22 04:00N 35°25' E 139°44'1121.3
2018-Feb-22 03:30N 35°31' E 139°55'816.7
2018-Feb-22 03:00N 35°35' E 140°04'1 2.5
2018-Feb-22 02:26N 35°36' E 140°05'0 0.0
2018-Feb-22 01:56N 35°36' E 140°05'0 0.0
2018-Feb-22 01:29N 35°36' E 140°05'0 0.0
2018-Feb-22 00:59N 35°36' E 140°05'0 0.0
2018-Feb-22 00:29N 35°36' E 140°05'0 0.0
2018-Feb-21 23:59N 35°36' E 140°05'0 0.0
2018-Feb-21 23:26N 35°36' E 140°05'0 0.0
2018-Feb-21 22:59N 35°36' E 140°05'0 0.0
2018-Feb-21 22:26N 35°36' E 140°05'0 0.0
2018-Feb-21 21:56N 35°36' E 140°05'0 0.0
2018-Feb-21 21:29N 35°36' E 140°05'0 0.0
2018-Feb-21 20:50N 35°36' E 140°05'0 0.0
2018-Feb-21 20:30N 35°36' E 140°05'3 5.3
2018-Feb-21 20:00N 35°35' E 140°02'714.9
2018-Feb-21 19:30N 35°31' E 139°55'815.9
2018-Feb-21 19:00N 35°25' E 139°48'612.6
2018-Feb-21 18:30N 35°20' E 139°44'612.0
2018-Feb-21 18:00N 35°14' E 139°47'815.1
2018-Feb-21 17:31N 35°07' E 139°45'918.3
2018-Feb-21 17:00N 35°00' E 139°37'1018.7
2018-Feb-21 16:30N 34°54' E 139°28'1018.9
2018-Feb-21 15:59N 34°48' E 139°19'1119.7
2018-Feb-21 15:26N 34°40' E 139°10'818.7
2018-Feb-21 15:00N 34°34' E 139°03'918.2
2018-Feb-21 14:30N 34°29' E 138°55'1020.4
2018-Feb-21 14:00N 34°28' E 138°42'1321.1
2018-Feb-21 13:24N 34°28' E 138°26'921.2
2018-Feb-21 12:57N 34°28' E 138°15'1121.5
2018-Feb-21 12:27N 34°28' E 138°02'1021.5
2018-Feb-21 12:00N 34°28' E 137°50'2021.2
2018-Feb-21 11:05N 34°30' E 137°27'221.5
2018-Feb-21 11:00N 34°30' E 137°24'1121.2
2018-Feb-21 10:29N 34°31' E 137°11'816.9
2018-Feb-21 10:00N 34°32' E 137°02'714.3
2018-Feb-21 09:29N 34°37' E 136°55'1019.9
2018-Feb-21 09:00N 34°44' E 136°47'1020.6
2018-Feb-21 08:31N 34°55' E 136°46'815.2
2018-Feb-21 08:00N 35°01' E 136°50'3 5.4
2018-Feb-21 07:30N 35°03' E 136°53'0 0.0
2018-Feb-21 06:57N 35°03' E 136°53'0 0.0
2018-Feb-21 06:27N 35°03' E 136°53'0 0.0
2018-Feb-21 06:00N 35°03' E 136°53'0 0.0
2018-Feb-21 05:30N 35°03' E 136°53'0 0.0
2018-Feb-21 04:57N 35°03' E 136°53'0 0.0
2018-Feb-21 04:27N 35°03' E 136°53'0 0.0
2018-Feb-21 04:00N 35°03' E 136°53'0 0.0
2018-Feb-21 03:30N 35°03' E 136°53'1 1.4
2018-Feb-21 03:00N 35°03' E 136°53'0 0.0
2018-Feb-21 02:29N 35°03' E 136°53'0 0.0
2018-Feb-21 01:59N 35°03' E 136°53'0 0.0
2018-Feb-21 01:29N 35°03' E 136°53'0 0.0
2018-Feb-21 00:59N 35°03' E 136°53'0 0.0
2018-Feb-21 00:29N 35°03' E 136°53'0 0.0
2018-Feb-20 23:59N 35°03' E 136°53'0 0.0
2018-Feb-20 23:29N 35°03' E 136°53'0 0.0
2018-Feb-20 22:59N 35°03' E 136°53'0 0.0
2018-Feb-20 22:29N 35°03' E 136°53'0 0.0
2018-Feb-20 21:59N 35°03' E 136°53'0 0.0
2018-Feb-20 21:30N 35°03' E 136°53'1 2.4
2018-Feb-20 21:00N 35°02' E 136°52'815.9
2018-Feb-20 20:30N 34°56' E 136°47'816.9
2018-Feb-20 20:00N 34°47' E 136°48'917.1
2018-Feb-20 19:30N 34°40' E 136°53'815.7
2018-Feb-20 19:00N 34°34' E 136°60'714.1
2018-Feb-20 18:30N 34°28' E 137°03'3016.6
2018-Feb-20 16:40N 33°60' E 136°47'317.2
2018-Feb-20 16:28N 33°57' E 136°45'7814.3
2018-Feb-20 11:00N 33°33' E 135°15'1018.7
2018-Feb-20 10:27N 33°40' E 135°08'818.5
2018-Feb-20 10:00N 33°47' E 135°02'918.2
2018-Feb-20 09:31N 33°55' E 134°56'918.8
2018-Feb-20 09:00N 34°04' E 134°57'1019.1
2018-Feb-20 08:31N 34°14' E 134°58'1121.2
2018-Feb-20 08:01N 34°24' E 135°00'1121.0
2018-Feb-20 07:30N 34°35' E 135°03'1019.1
2018-Feb-20 07:00N 34°34' E 134°51'1121.5
2018-Feb-20 06:31N 34°30' E 134°40'1121.3
2018-Feb-20 06:00N 34°26' E 134°28'1121.1
2018-Feb-20 05:30N 34°24' E 134°15'70 5.7
2018-Feb-19 17:07N 34°07' E 132°52'317.0
2018-Feb-19 16:56N 34°05' E 132°50'717.2
2018-Feb-19 16:30N 33°59' E 132°44'918.2
2018-Feb-19 16:00N 33°53' E 132°36'916.8
2018-Feb-19 15:29N 33°47' E 132°28'917.2
2018-Feb-19 14:58N 33°44' E 132°18'917.3
2018-Feb-19 14:27N 33°41' E 132°08'817.3
2018-Feb-19 13:59N 33°43' E 131°58'917.7
2018-Feb-19 13:30N 33°44' E 131°48'917.8
2018-Feb-19 13:00N 33°46' E 131°38'917.9
2018-Feb-19 12:30N 33°47' E 131°27'715.0
2018-Feb-19 12:00N 33°44' E 131°19'815.1
2018-Feb-19 11:30N 33°37' E 131°15'1 1.2
2018-Feb-19 11:00N 33°37' E 131°15'0 0.0
2018-Feb-19 10:30N 33°37' E 131°15'0 0.0
2018-Feb-19 10:00N 33°37' E 131°15'0 0.0
2018-Feb-19 09:30N 33°37' E 131°15'0 0.0
2018-Feb-19 09:00N 33°37' E 131°15'0 0.0
2018-Feb-19 08:24N 33°37' E 131°15'0 0.0
2018-Feb-19 08:00N 33°37' E 131°15'1 2.1
2018-Feb-19 07:30N 33°38' E 131°16'917.8
2018-Feb-19 07:00N 33°46' E 131°12'917.7
2018-Feb-19 06:30N 33°53' E 131°05'4 7.5
2018-Feb-19 05:55N 33°53' E 130°60'0 0.0
2018-Feb-19 05:28N 33°53' E 130°60'0 0.0
2018-Feb-19 04:58N 33°53' E 130°60'0 0.0
2018-Feb-19 04:28N 33°53' E 130°60'0 0.0
2018-Feb-19 03:58N 33°53' E 130°60'0 0.0
2018-Feb-19 03:25N 33°53' E 130°60'0 0.0
2018-Feb-19 02:58N 33°53' E 130°60'0 0.0
2018-Feb-19 02:22N 33°53' E 130°60'0 0.0
2018-Feb-19 01:55N 33°53' E 130°60'0 0.0
2018-Feb-19 01:28N 33°53' E 130°60'0 0.0
2018-Feb-19 00:58N 33°53' E 130°60'0 0.0
2018-Feb-19 00:25N 33°53' E 130°60'0 0.0
2018-Feb-18 23:55N 33°53' E 130°60'0 0.0
2018-Feb-18 23:28N 33°53' E 130°60'0 0.0
2018-Feb-18 22:55N 33°53' E 130°60'0 0.0
2018-Feb-18 22:30N 33°53' E 130°60'0 0.2
2018-Feb-18 22:00N 33°53' E 130°60'3 5.4
2018-Feb-18 21:30N 33°54' E 131°03'714.4
2018-Feb-18 21:00N 33°52' E 131°11'917.4
2018-Feb-18 20:30N 33°50' E 131°21'917.5
2018-Feb-18 20:00N 33°49' E 131°32'917.9
2018-Feb-18 19:30N 33°47' E 131°42'917.9
2018-Feb-18 19:00N 33°45' E 131°53'918.5
2018-Feb-18 18:30N 33°43' E 132°04'918.8
2018-Feb-18 18:00N 33°44' E 132°15'1020.4
2018-Feb-18 17:30N 33°47' E 132°27'1121.2
2018-Feb-18 17:00N 33°54' E 132°37'1121.2
2018-Feb-18 16:30N 34°01' E 132°45'67 6.5
2018-Feb-18 06:15N 34°26' E 134°01'310.5
2018-Feb-18 06:00N 34°27' E 134°04'810.9
2018-Feb-18 05:18N 34°25' E 134°13'312.0
2018-Feb-18 05:00N 34°24' E 134°17'917.4
2018-Feb-18 04:30N 34°26' E 134°27'918.6
2018-Feb-18 04:00N 34°30' E 134°37'1020.6
2018-Feb-18 03:30N 34°34' E 134°49'1121.1
2018-Feb-18 03:00N 34°37' E 135°01'1020.4
2018-Feb-18 02:30N 34°37' E 135°14'815.8
2018-Feb-18 02:00N 34°40' E 135°22'1 2.1
2018-Feb-18 01:31N 34°41' E 135°23'0 0.0
2018-Feb-18 00:58N 34°41' E 135°23'0 0.0
2018-Feb-18 00:31N 34°41' E 135°23'0 0.0
2018-Feb-17 23:58N 34°41' E 135°23'0 0.0
2018-Feb-17 23:28N 34°41' E 135°23'0 0.0
2018-Feb-17 23:00N 34°41' E 135°23'0 0.2
2018-Feb-17 22:31N 34°41' E 135°23'510.6
2018-Feb-17 22:00N 34°37' E 135°19'917.8
2018-Feb-17 21:30N 34°30' E 135°12'918.3
2018-Feb-17 21:01N 34°23' E 135°05'917.7
2018-Feb-17 20:30N 34°15' E 134°60'918.7
2018-Feb-17 20:00N 34°06' E 135°00'1019.0
2018-Feb-17 19:30N 33°57' E 135°00'917.5
2018-Feb-17 19:00N 33°48' E 135°03'918.3
2018-Feb-17 18:30N 33°41' E 135°10'1118.2
2018-Feb-17 17:52N 33°32' E 135°19'6616.0
2018-Feb-17 13:43N 33°57' E 136°33'518.4
2018-Feb-17 13:26N 34°00' E 136°38'818.3
2018-Feb-17 13:00N 34°06' E 136°45'2817.4
2018-Feb-17 11:22N 34°30' E 137°02'513.4
2018-Feb-17 11:00N 34°35' E 136°59'816.0
2018-Feb-17 10:30N 34°41' E 137°05'917.4
2018-Feb-17 10:00N 34°44' E 137°15'4 1.4
2018-Feb-17 07:09N 34°44' E 137°20'0 0.0
2018-Feb-17 06:56N 34°44' E 137°20'0 0.3
2018-Feb-17 06:29N 34°44' E 137°19'4 7.8
2018-Feb-17 05:57N 34°44' E 137°14'818.0
2018-Feb-17 05:30N 34°42' E 137°05'917.6
2018-Feb-17 04:59N 34°41' E 136°54'1020.9
2018-Feb-17 04:31N 34°48' E 136°46'1019.7
2018-Feb-17 04:00N 34°58' E 136°48'713.3
2018-Feb-17 03:31N 35°03' E 136°53'0 0.3
2018-Feb-17 03:00N 35°03' E 136°53'0 0.0
2018-Feb-17 02:30N 35°03' E 136°53'0 0.0
2018-Feb-17 02:00N 35°03' E 136°53'0 0.0
2018-Feb-17 01:30N 35°03' E 136°53'1 1.1
2018-Feb-17 00:58N 35°03' E 136°53'0 0.0
2018-Feb-17 00:25N 35°03' E 136°53'0 0.0
2018-Feb-16 23:58N 35°03' E 136°53'0 0.0
2018-Feb-16 23:28N 35°03' E 136°53'0 0.0
2018-Feb-16 23:00N 35°03' E 136°53'2 4.3
2018-Feb-16 22:30N 35°01' E 136°51'713.6
2018-Feb-16 22:00N 34°56' E 136°47'1019.7
2018-Feb-16 21:30N 34°46' E 136°48'1019.4
2018-Feb-16 21:00N 34°38' E 136°55'714.6
2018-Feb-16 20:30N 34°33' E 137°02'611.1
2018-Feb-16 20:00N 34°32' E 137°09'1019.8
2018-Feb-16 19:30N 34°32' E 137°20'1720.9
2018-Feb-16 18:41N 34°32' E 137°41'420.8
2018-Feb-16 18:29N 34°32' E 137°46'1020.0
2018-Feb-16 18:00N 34°32' E 137°58'1019.4
2018-Feb-16 17:28N 34°32' E 138°11'918.7
2018-Feb-16 16:59N 34°31' E 138°22'919.5
2018-Feb-16 16:30N 34°32' E 138°33'1019.3
2018-Feb-16 15:58N 34°32' E 138°45'818.3
2018-Feb-16 15:30N 34°32' E 138°56'1018.8
2018-Feb-16 15:00N 34°39' E 139°04'919.0
2018-Feb-16 14:30N 34°46' E 139°11'918.7
2018-Feb-16 14:00N 34°52' E 139°20'918.7
2018-Feb-16 13:30N 34°58' E 139°28'1019.6
2018-Feb-16 13:01N 35°04' E 139°38'917.5
2018-Feb-16 12:30N 35°11' E 139°45'612.6
2018-Feb-16 12:00N 35°17' E 139°45'714.0
2018-Feb-16 11:30N 35°23' E 139°40'1 2.4
2018-Feb-16 10:59N 35°23' E 139°39'0 0.0
2018-Feb-16 10:29N 35°23' E 139°39'0 0.0
2018-Feb-16 09:59N 35°23' E 139°39'0 0.0
2018-Feb-16 09:29N 35°23' E 139°39'0 0.0
2018-Feb-16 08:59N 35°23' E 139°39'0 0.0
2018-Feb-16 08:29N 35°23' E 139°39'0 0.0
2018-Feb-16 07:59N 35°23' E 139°39'0 0.0
2018-Feb-16 07:29N 35°23' E 139°39'0 0.0
2018-Feb-16 06:59N 35°23' E 139°39'0 0.0
2018-Feb-16 06:29N 35°23' E 139°39'0 0.0
2018-Feb-16 05:59N 35°23' E 139°39'0 0.0
2018-Feb-16 05:29N 35°23' E 139°39'0 0.0
2018-Feb-16 04:59N 35°23' E 139°39'0 0.0
2018-Feb-16 04:27N 35°23' E 139°39'0 0.2
2018-Feb-16 04:01N 35°23' E 139°39'612.9
2018-Feb-16 03:30N 35°26' E 139°46'1020.6
2018-Feb-16 03:00N 35°32' E 139°57'815.2
2018-Feb-16 02:30N 35°36' E 140°05'1 1.0
2018-Feb-16 01:58N 35°36' E 140°05'0 0.0
2018-Feb-16 01:28N 35°36' E 140°05'0 0.0
2018-Feb-16 00:58N 35°36' E 140°05'0 0.0
2018-Feb-16 00:28N 35°36' E 140°05'0 0.0
2018-Feb-15 23:58N 35°36' E 140°05'0 0.0
2018-Feb-15 23:16N 35°36' E 140°05'0 0.0
2018-Feb-15 22:58N 35°36' E 140°05'0 0.0
2018-Feb-15 22:28N 35°36' E 140°05'0 0.0
2018-Feb-15 21:58N 35°36' E 140°05'0 0.0
2018-Feb-15 21:28N 35°36' E 140°05'0 0.0
2018-Feb-15 20:58N 35°36' E 140°05'0 0.0
2018-Feb-15 20:29N 35°36' E 140°05'3 5.9
2018-Feb-15 20:00N 35°35' E 140°02'816.8
2018-Feb-15 19:31N 35°30' E 139°54'815.6
2018-Feb-15 19:01N 35°25' E 139°47'612.5
2018-Feb-15 18:30N 35°19' E 139°44'612.0
2018-Feb-15 18:00N 35°13' E 139°47'815.5
2018-Feb-15 17:30N 35°06' E 139°44'918.2
2018-Feb-15 17:00N 34°59' E 139°36'918.0
2018-Feb-15 16:30N 34°54' E 139°27'1019.1
2018-Feb-15 15:58N 34°48' E 139°17'919.5
2018-Feb-15 15:30N 34°41' E 139°09'1018.9
2018-Feb-15 14:59N 34°35' E 139°01'1019.4
2018-Feb-15 14:28N 34°31' E 138°49'  
Track history (hours):
 
Tides and Currents Weather Stations Pressure Air Temp Water Temp Dewpoint Dewpoint Depression Visibility Wind Speed Wind Dir Waves Ship Positions

Kinuura Maru

Last reported at 2018-Feb-25 14:00 UTC. Time now 2018-Feb-25 14:06 UTC.
Position N 33°46' E 131°41'.

Length 165 m; draft 6.5 m.

Type: Cargo ship. MMSI: 431101175.

Date/timePositionNaut miles runAvg speedWind from/ knotsBaromVisibWave heightAir tempDewpointWater temp
2018-Feb-25 14:00N 33°46' E 131°41'1020.2
2018-Feb-25 13:30N 33°47' E 131°29'917.7
2018-Feb-25 13:01N 33°45' E 131°19'815.4
2018-Feb-25 12:30N 33°37' E 131°15'1 1.1
2018-Feb-25 11:59N 33°37' E 131°15'0 0.0
2018-Feb-25 11:29N 33°37' E 131°15'0 0.0
2018-Feb-25 10:59N 33°37' E 131°15'0 0.0
2018-Feb-25 10:29N 33°37' E 131°15'0 0.0
2018-Feb-25 09:59N 33°37' E 131°15'0 0.0
2018-Feb-25 09:29N 33°37' E 131°15'0 0.0
2018-Feb-25 08:59N 33°37' E 131°15'0 0.0
2018-Feb-25 08:29N 33°37' E 131°15'0 0.0
2018-Feb-25 07:59N 33°37' E 131°15'0 0.0
2018-Feb-25 07:29N 33°37' E 131°15'0 0.0
2018-Feb-25 07:00N 33°37' E 131°15'3 5.9
2018-Feb-25 06:30N 33°40' E 131°16'1019.7
2018-Feb-25 06:00N 33°49' E 131°11'816.6
2018-Feb-25 05:31N 33°53' E 131°03'2 4.5
2018-Feb-25 04:58N 33°53' E 130°60'0 0.0
2018-Feb-25 04:28N 33°53' E 130°60'0 0.0
2018-Feb-25 03:58N 33°53' E 130°60'0 0.0
2018-Feb-25 03:28N 33°53' E 130°60'0 0.0
2018-Feb-25 02:58N 33°53' E 130°60'0 0.0
2018-Feb-25 02:28N 33°53' E 130°60'0 0.0
2018-Feb-25 01:58N 33°53' E 130°60'0 0.0
2018-Feb-25 01:28N 33°53' E 130°60'0 0.0
2018-Feb-25 00:58N 33°53' E 130°60'0 0.0
2018-Feb-25 00:28N 33°53' E 130°60'0 0.0
2018-Feb-24 23:58N 33°53' E 130°60'0 0.0
2018-Feb-24 23:28N 33°53' E 130°60'0 0.0
2018-Feb-24 22:58N 33°53' E 130°60'0 0.0
2018-Feb-24 22:28N 33°53' E 130°60'0 0.0
2018-Feb-24 22:00N 33°53' E 130°60'1 1.3
2018-Feb-24 21:30N 33°52' E 130°60'713.2
2018-Feb-24 21:00N 33°53' E 131°08'1020.3
2018-Feb-24 20:30N 33°50' E 131°20'1021.0
2018-Feb-24 20:00N 33°48' E 131°32'1121.1
2018-Feb-24 19:29N 33°46' E 131°45'1021.1
2018-Feb-24 19:00N 33°44' E 131°57'1120.5
2018-Feb-24 18:27N 33°42' E 132°10'1020.8
2018-Feb-24 17:59N 33°46' E 132°21'1020.3
2018-Feb-24 17:28N 33°50' E 132°33'919.9
2018-Feb-24 17:00N 33°57' E 132°41'73 6.7
2018-Feb-24 06:07N 34°26' E 134°02'111.8
2018-Feb-24 06:00N 34°27' E 134°03'815.1
2018-Feb-24 05:28N 34°25' E 134°13'816.2
2018-Feb-24 05:00N 34°25' E 134°22'816.3
2018-Feb-24 04:30N 34°28' E 134°31'816.5
2018-Feb-24 04:00N 34°31' E 134°40'917.7
2018-Feb-24 03:30N 34°35' E 134°50'1019.6
2018-Feb-24 03:01N 34°37' E 135°02'1019.3
2018-Feb-24 02:30N 34°36' E 135°13'815.6
2018-Feb-24 02:00N 34°40' E 135°22'1 2.8
2018-Feb-24 01:30N 34°41' E 135°23'0 0.0
2018-Feb-24 01:00N 34°41' E 135°23'0 0.0
2018-Feb-24 00:30N 34°41' E 135°23'0 0.0
2018-Feb-24 00:00N 34°41' E 135°23'0 0.0
2018-Feb-23 23:30N 34°41' E 135°23'0 0.0
2018-Feb-23 23:01N 34°41' E 135°23'0 0.3
2018-Feb-23 22:31N 34°41' E 135°23'611.3
2018-Feb-23 22:01N 34°37' E 135°19'918.6
2018-Feb-23 21:30N 34°30' E 135°12'917.6
2018-Feb-23 21:01N 34°23' E 135°05'816.6
2018-Feb-23 20:31N 34°16' E 134°59'918.1
2018-Feb-23 20:01N 34°07' E 134°59'918.1
2018-Feb-23 19:31N 33°58' E 134°59'816.9
2018-Feb-23 19:01N 33°50' E 135°02'918.2
2018-Feb-23 18:30N 33°43' E 135°09'1018.4
2018-Feb-23 17:56N 33°35' E 135°17'6315.8
2018-Feb-23 13:56N 33°54' E 136°29'919.7
2018-Feb-23 13:27N 34°00' E 136°38'920.1
2018-Feb-23 13:00N 34°07' E 136°46'2319.1
2018-Feb-23 11:48N 34°25' E 137°01'517.3
2018-Feb-23 11:30N 34°31' E 137°02'713.0
2018-Feb-23 11:00N 34°36' E 136°58'918.8
2018-Feb-23 10:30N 34°42' E 137°06'816.9
2018-Feb-23 10:00N 34°44' E 137°16'3 0.7
2018-Feb-23 06:22N 34°44' E 137°19'512.0
2018-Feb-23 05:59N 34°44' E 137°14'919.0
2018-Feb-23 05:29N 34°40' E 137°03'917.9
2018-Feb-23 05:00N 34°42' E 136°53'1020.0
2018-Feb-23 04:30N 34°50' E 136°46'918.9
2018-Feb-23 04:00N 34°59' E 136°48'611.2
2018-Feb-23 03:31N 35°03' E 136°53'0 0.2
2018-Feb-23 02:59N 35°03' E 136°53'0 0.0
2018-Feb-23 02:29N 35°03' E 136°53'0 0.0
2018-Feb-23 01:59N 35°03' E 136°53'0 0.0
2018-Feb-23 01:29N 35°03' E 136°53'0 0.4
2018-Feb-23 01:00N 35°03' E 136°53'0 0.9
2018-Feb-23 00:29N 35°03' E 136°53'0 0.0
2018-Feb-22 23:59N 35°03' E 136°53'0 0.0
2018-Feb-22 23:29N 35°03' E 136°53'0 0.0
2018-Feb-22 22:59N 35°03' E 136°53'0 0.0
2018-Feb-22 22:29N 35°03' E 136°53'0 0.0
2018-Feb-22 22:00N 35°03' E 136°53'3 6.1
2018-Feb-22 21:30N 35°01' E 136°50'815.8
2018-Feb-22 21:00N 34°53' E 136°47'1019.6
2018-Feb-22 20:30N 34°44' E 136°49'918.6
2018-Feb-22 20:00N 34°37' E 136°57'713.5
2018-Feb-22 19:29N 34°32' E 137°04'918.9
2018-Feb-22 19:00N 34°32' E 137°15'2619.6
2018-Feb-22 17:40N 34°32' E 137°47'319.3
2018-Feb-22 17:30N 34°32' E 137°51'1019.5
2018-Feb-22 17:00N 34°32' E 138°02'1119.0
2018-Feb-22 16:27N 34°32' E 138°15'919.3
2018-Feb-22 15:58N 34°32' E 138°26'1120.1
2018-Feb-22 15:25N 34°32' E 138°40'920.3
2018-Feb-22 14:59N 34°32' E 138°50'919.4
2018-Feb-22 14:30N 34°35' E 139°01'1321.4
2018-Feb-22 13:55N 34°45' E 139°11'1021.0
2018-Feb-22 13:27N 34°52' E 139°19'920.8
2018-Feb-22 13:00N 34°58' E 139°28'1121.2
2018-Feb-22 12:30N 35°04' E 139°38'918.1
2018-Feb-22 12:00N 35°11' E 139°46'612.7
2018-Feb-22 11:30N 35°17' E 139°45'713.0
2018-Feb-22 11:00N 35°23' E 139°41'2 4.0
2018-Feb-22 10:29N 35°23' E 139°39'0 0.0
2018-Feb-22 09:59N 35°23' E 139°39'0 0.0
2018-Feb-22 09:29N 35°23' E 139°39'0 0.0
2018-Feb-22 08:59N 35°23' E 139°39'0 0.0
2018-Feb-22 08:29N 35°23' E 139°39'0 0.0
2018-Feb-22 07:59N 35°23' E 139°39'0 0.0
2018-Feb-22 07:29N 35°23' E 139°39'0 0.0
2018-Feb-22 06:59N 35°23' E 139°39'0 0.0
2018-Feb-22 06:29N 35°23' E 139°39'0 0.0
2018-Feb-22 05:59N 35°23' E 139°39'0 0.0
2018-Feb-22 05:29N 35°23' E 139°39'0 0.0
2018-Feb-22 05:00N 35°23' E 139°39'0 0.0
2018-Feb-22 04:30N 35°23' E 139°39'5 9.2
2018-Feb-22 04:00N 35°25' E 139°44'1121.3
2018-Feb-22 03:30N 35°31' E 139°55'816.7
2018-Feb-22 03:00N 35°35' E 140°04'1 2.5
2018-Feb-22 02:26N 35°36' E 140°05'0 0.0
2018-Feb-22 01:56N 35°36' E 140°05'0 0.0
2018-Feb-22 01:29N 35°36' E 140°05'0 0.0
2018-Feb-22 00:59N 35°36' E 140°05'0 0.0
2018-Feb-22 00:29N 35°36' E 140°05'0 0.0
2018-Feb-21 23:59N 35°36' E 140°05'0 0.0
2018-Feb-21 23:26N 35°36' E 140°05'0 0.0
2018-Feb-21 22:59N 35°36' E 140°05'0 0.0
2018-Feb-21 22:26N 35°36' E 140°05'0 0.0
2018-Feb-21 21:56N 35°36' E 140°05'0 0.0
2018-Feb-21 21:29N 35°36' E 140°05'0 0.0
2018-Feb-21 20:50N 35°36' E 140°05'0 0.0
2018-Feb-21 20:30N 35°36' E 140°05'3 5.3
2018-Feb-21 20:00N 35°35' E 140°02'714.9
2018-Feb-21 19:30N 35°31' E 139°55'815.9
2018-Feb-21 19:00N 35°25' E 139°48'612.6
2018-Feb-21 18:30N 35°20' E 139°44'612.0
2018-Feb-21 18:00N 35°14' E 139°47'815.1
2018-Feb-21 17:31N 35°07' E 139°45'918.3
2018-Feb-21 17:00N 35°00' E 139°37'1018.7
2018-Feb-21 16:30N 34°54' E 139°28'1018.9
2018-Feb-21 15:59N 34°48' E 139°19'1119.7
2018-Feb-21 15:26N 34°40' E 139°10'818.7
2018-Feb-21 15:00N 34°34' E 139°03'918.2
2018-Feb-21 14:30N 34°29' E 138°55'1020.4
2018-Feb-21 14:00N 34°28' E 138°42'1321.1
2018-Feb-21 13:24N 34°28' E 138°26'921.2
2018-Feb-21 12:57N 34°28' E 138°15'1121.5
2018-Feb-21 12:27N 34°28' E 138°02'1021.5
2018-Feb-21 12:00N 34°28' E 137°50'2021.2
2018-Feb-21 11:05N 34°30' E 137°27'221.5
2018-Feb-21 11:00N 34°30' E 137°24'1121.2
2018-Feb-21 10:29N 34°31' E 137°11'816.9
2018-Feb-21 10:00N 34°32' E 137°02'714.3
2018-Feb-21 09:29N 34°37' E 136°55'1019.9
2018-Feb-21 09:00N 34°44' E 136°47'1020.6
2018-Feb-21 08:31N 34°55' E 136°46'815.2
2018-Feb-21 08:00N 35°01' E 136°50'3 5.4
2018-Feb-21 07:30N 35°03' E 136°53'0 0.0
2018-Feb-21 06:57N 35°03' E 136°53'0 0.0
2018-Feb-21 06:27N 35°03' E 136°53'0 0.0
2018-Feb-21 06:00N 35°03' E 136°53'0 0.0
2018-Feb-21 05:30N 35°03' E 136°53'0 0.0
2018-Feb-21 04:57N 35°03' E 136°53'0 0.0
2018-Feb-21 04:27N 35°03' E 136°53'0 0.0
2018-Feb-21 04:00N 35°03' E 136°53'0 0.0
2018-Feb-21 03:30N 35°03' E 136°53'1 1.4
2018-Feb-21 03:00N 35°03' E 136°53'0 0.0
2018-Feb-21 02:29N 35°03' E 136°53'0 0.0
2018-Feb-21 01:59N 35°03' E 136°53'0 0.0
2018-Feb-21 01:29N 35°03' E 136°53'0 0.0
2018-Feb-21 00:59N 35°03' E 136°53'0 0.0
2018-Feb-21 00:29N 35°03' E 136°53'0 0.0
2018-Feb-20 23:59N 35°03' E 136°53'0 0.0
2018-Feb-20 23:29N 35°03' E 136°53'0 0.0
2018-Feb-20 22:59N 35°03' E 136°53'0 0.0
2018-Feb-20 22:29N 35°03' E 136°53'0 0.0
2018-Feb-20 21:59N 35°03' E 136°53'0 0.0
2018-Feb-20 21:30N 35°03' E 136°53'1 2.4
2018-Feb-20 21:00N 35°02' E 136°52'815.9
2018-Feb-20 20:30N 34°56' E 136°47'816.9
2018-Feb-20 20:00N 34°47' E 136°48'917.1
2018-Feb-20 19:30N 34°40' E 136°53'815.7
2018-Feb-20 19:00N 34°34' E 136°60'714.1
2018-Feb-20 18:30N 34°28' E 137°03'3016.6
2018-Feb-20 16:40N 33°60' E 136°47'317.2
2018-Feb-20 16:28N 33°57' E 136°45'7814.3
2018-Feb-20 11:00N 33°33' E 135°15'1018.7
2018-Feb-20 10:27N 33°40' E 135°08'818.5
2018-Feb-20 10:00N 33°47' E 135°02'918.2
2018-Feb-20 09:31N 33°55' E 134°56'918.8
2018-Feb-20 09:00N 34°04' E 134°57'1019.1
2018-Feb-20 08:31N 34°14' E 134°58'1121.2
2018-Feb-20 08:01N 34°24' E 135°00'1121.0
2018-Feb-20 07:30N 34°35' E 135°03'1019.1
2018-Feb-20 07:00N 34°34' E 134°51'1121.5
2018-Feb-20 06:31N 34°30' E 134°40'1121.3
2018-Feb-20 06:00N 34°26' E 134°28'1121.1
2018-Feb-20 05:30N 34°24' E 134°15'70 5.7
2018-Feb-19 17:07N 34°07' E 132°52'317.0
2018-Feb-19 16:56N 34°05' E 132°50'717.2
2018-Feb-19 16:30N 33°59' E 132°44'918.2
2018-Feb-19 16:00N 33°53' E 132°36'916.8
2018-Feb-19 15:29N 33°47' E 132°28'917.2
2018-Feb-19 14:58N 33°44' E 132°18'917.3
2018-Feb-19 14:27N 33°41' E 132°08'817.3
2018-Feb-19 13:59N 33°43' E 131°58'917.7
2018-Feb-19 13:30N 33°44' E 131°48'917.8
2018-Feb-19 13:00N 33°46' E 131°38'917.9
2018-Feb-19 12:30N 33°47' E 131°27'715.0
2018-Feb-19 12:00N 33°44' E 131°19'815.1
2018-Feb-19 11:30N 33°37' E 131°15'1 1.2
2018-Feb-19 11:00N 33°37' E 131°15'0 0.0
2018-Feb-19 10:30N 33°37' E 131°15'0 0.0
2018-Feb-19 10:00N 33°37' E 131°15'0 0.0
2018-Feb-19 09:30N 33°37' E 131°15'0 0.0
2018-Feb-19 09:00N 33°37' E 131°15'0 0.0
2018-Feb-19 08:24N 33°37' E 131°15'0 0.0
2018-Feb-19 08:00N 33°37' E 131°15'1 2.1
2018-Feb-19 07:30N 33°38' E 131°16'917.8
2018-Feb-19 07:00N 33°46' E 131°12'917.7
2018-Feb-19 06:30N 33°53' E 131°05'4 7.5
2018-Feb-19 05:55N 33°53' E 130°60'0 0.0
2018-Feb-19 05:28N 33°53' E 130°60'0 0.0
2018-Feb-19 04:58N 33°53' E 130°60'0 0.0
2018-Feb-19 04:28N 33°53' E 130°60'0 0.0
2018-Feb-19 03:58N 33°53' E 130°60'0 0.0
2018-Feb-19 03:25N 33°53' E 130°60'0 0.0
2018-Feb-19 02:58N 33°53' E 130°60'0 0.0
2018-Feb-19 02:22N 33°53' E 130°60'0 0.0
2018-Feb-19 01:55N 33°53' E 130°60'0 0.0
2018-Feb-19 01:28N 33°53' E 130°60'0 0.0
2018-Feb-19 00:58N 33°53' E 130°60'0 0.0
2018-Feb-19 00:25N 33°53' E 130°60'0 0.0
2018-Feb-18 23:55N 33°53' E 130°60'0 0.0
2018-Feb-18 23:28N 33°53' E 130°60'0 0.0
2018-Feb-18 22:55N 33°53' E 130°60'0 0.0
2018-Feb-18 22:30N 33°53' E 130°60'0 0.2
2018-Feb-18 22:00N 33°53' E 130°60'3 5.4
2018-Feb-18 21:30N 33°54' E 131°03'714.4
2018-Feb-18 21:00N 33°52' E 131°11'917.4
2018-Feb-18 20:30N 33°50' E 131°21'917.5
2018-Feb-18 20:00N 33°49' E 131°32'917.9
2018-Feb-18 19:30N 33°47' E 131°42'917.9
2018-Feb-18 19:00N 33°45' E 131°53'918.5
2018-Feb-18 18:30N 33°43' E 132°04'918.8
2018-Feb-18 18:00N 33°44' E 132°15'1020.4
2018-Feb-18 17:30N 33°47' E 132°27'1121.2
2018-Feb-18 17:00N 33°54' E 132°37'1121.2
2018-Feb-18 16:30N 34°01' E 132°45'67 6.5
2018-Feb-18 06:15N 34°26' E 134°01'310.5
2018-Feb-18 06:00N 34°27' E 134°04'810.9
2018-Feb-18 05:18N 34°25' E 134°13'312.0
2018-Feb-18 05:00N 34°24' E 134°17'917.4
2018-Feb-18 04:30N 34°26' E 134°27'918.6
2018-Feb-18 04:00N 34°30' E 134°37'1020.6
2018-Feb-18 03:30N 34°34' E 134°49'1121.1
2018-Feb-18 03:00N 34°37' E 135°01'1020.4
2018-Feb-18 02:30N 34°37' E 135°14'815.8
2018-Feb-18 02:00N 34°40' E 135°22'1 2.1
2018-Feb-18 01:31N 34°41' E 135°23'0 0.0
2018-Feb-18 00:58N 34°41' E 135°23'0 0.0
2018-Feb-18 00:31N 34°41' E 135°23'0 0.0
2018-Feb-17 23:58N 34°41' E 135°23'0 0.0
2018-Feb-17 23:28N 34°41' E 135°23'0 0.0
2018-Feb-17 23:00N 34°41' E 135°23'0 0.2
2018-Feb-17 22:31N 34°41' E 135°23'510.6
2018-Feb-17 22:00N 34°37' E 135°19'917.8
2018-Feb-17 21:30N 34°30' E 135°12'918.3
2018-Feb-17 21:01N 34°23' E 135°05'917.7
2018-Feb-17 20:30N 34°15' E 134°60'918.7
2018-Feb-17 20:00N 34°06' E 135°00'1019.0
2018-Feb-17 19:30N 33°57' E 135°00'917.5
2018-Feb-17 19:00N 33°48' E 135°03'918.3
2018-Feb-17 18:30N 33°41' E 135°10'1118.2
2018-Feb-17 17:52N 33°32' E 135°19'6616.0
2018-Feb-17 13:43N 33°57' E 136°33'518.4
2018-Feb-17 13:26N 34°00' E 136°38'818.3
2018-Feb-17 13:00N 34°06' E 136°45'2817.4
2018-Feb-17 11:22N 34°30' E 137°02'513.4
2018-Feb-17 11:00N 34°35' E 136°59'816.0
2018-Feb-17 10:30N 34°41' E 137°05'917.4
2018-Feb-17 10:00N 34°44' E 137°15'4 1.4
2018-Feb-17 07:09N 34°44' E 137°20'0 0.0
2018-Feb-17 06:56N 34°44' E 137°20'0 0.3
2018-Feb-17 06:29N 34°44' E 137°19'4 7.8
2018-Feb-17 05:57N 34°44' E 137°14'818.0
2018-Feb-17 05:30N 34°42' E 137°05'917.6
2018-Feb-17 04:59N 34°41' E 136°54'1020.9
2018-Feb-17 04:31N 34°48' E 136°46'1019.7
2018-Feb-17 04:00N 34°58' E 136°48'713.3
2018-Feb-17 03:31N 35°03' E 136°53'0 0.3
2018-Feb-17 03:00N 35°03' E 136°53'0 0.0
2018-Feb-17 02:30N 35°03' E 136°53'0 0.0
2018-Feb-17 02:00N 35°03' E 136°53'0 0.0
2018-Feb-17 01:30N 35°03' E 136°53'1 1.1
2018-Feb-17 00:58N 35°03' E 136°53'0 0.0
2018-Feb-17 00:25N 35°03' E 136°53'0 0.0
2018-Feb-16 23:58N 35°03' E 136°53'0 0.0
2018-Feb-16 23:28N 35°03' E 136°53'0 0.0
2018-Feb-16 23:00N 35°03' E 136°53'2 4.3
2018-Feb-16 22:30N 35°01' E 136°51'713.6
2018-Feb-16 22:00N 34°56' E 136°47'1019.7
2018-Feb-16 21:30N 34°46' E 136°48'1019.4
2018-Feb-16 21:00N 34°38' E 136°55'714.6
2018-Feb-16 20:30N 34°33' E 137°02'611.1
2018-Feb-16 20:00N 34°32' E 137°09'1019.8
2018-Feb-16 19:30N 34°32' E 137°20'1720.9
2018-Feb-16 18:41N 34°32' E 137°41'420.8
2018-Feb-16 18:29N 34°32' E 137°46'1020.0
2018-Feb-16 18:00N 34°32' E 137°58'1019.4
2018-Feb-16 17:28N 34°32' E 138°11'918.7
2018-Feb-16 16:59N 34°31' E 138°22'919.5
2018-Feb-16 16:30N 34°32' E 138°33'1019.3
2018-Feb-16 15:58N 34°32' E 138°45'818.3
2018-Feb-16 15:30N 34°32' E 138°56'1018.8
2018-Feb-16 15:00N 34°39' E 139°04'919.0
2018-Feb-16 14:30N 34°46' E 139°11'918.7
2018-Feb-16 14:00N 34°52' E 139°20'918.7
2018-Feb-16 13:30N 34°58' E 139°28'1019.6
2018-Feb-16 13:01N 35°04' E 139°38'917.5
2018-Feb-16 12:30N 35°11' E 139°45'612.6
2018-Feb-16 12:00N 35°17' E 139°45'714.0
2018-Feb-16 11:30N 35°23' E 139°40'1 2.4
2018-Feb-16 10:59N 35°23' E 139°39'0 0.0
2018-Feb-16 10:29N 35°23' E 139°39'0 0.0
2018-Feb-16 09:59N 35°23' E 139°39'0 0.0
2018-Feb-16 09:29N 35°23' E 139°39'0 0.0
2018-Feb-16 08:59N 35°23' E 139°39'0 0.0
2018-Feb-16 08:29N 35°23' E 139°39'0 0.0
2018-Feb-16 07:59N 35°23' E 139°39'0 0.0
2018-Feb-16 07:29N 35°23' E 139°39'0 0.0
2018-Feb-16 06:59N 35°23' E 139°39'0 0.0
2018-Feb-16 06:29N 35°23' E 139°39'0 0.0
2018-Feb-16 05:59N 35°23' E 139°39'0 0.0
2018-Feb-16 05:29N 35°23' E 139°39'0 0.0
2018-Feb-16 04:59N 35°23' E 139°39'0 0.0
2018-Feb-16 04:27N 35°23' E 139°39'0 0.2
2018-Feb-16 04:01N 35°23' E 139°39'612.9
2018-Feb-16 03:30N 35°26' E 139°46'1020.6
2018-Feb-16 03:00N 35°32' E 139°57'815.2
2018-Feb-16 02:30N 35°36' E 140°05'1 1.0
2018-Feb-16 01:58N 35°36' E 140°05'0 0.0
2018-Feb-16 01:28N 35°36' E 140°05'0 0.0
2018-Feb-16 00:58N 35°36' E 140°05'0 0.0
2018-Feb-16 00:28N 35°36' E 140°05'0 0.0
2018-Feb-15 23:58N 35°36' E 140°05'0 0.0
2018-Feb-15 23:16N 35°36' E 140°05'0 0.0
2018-Feb-15 22:58N 35°36' E 140°05'0 0.0
2018-Feb-15 22:28N 35°36' E 140°05'0 0.0
2018-Feb-15 21:58N 35°36' E 140°05'0 0.0
2018-Feb-15 21:28N 35°36' E 140°05'0 0.0
2018-Feb-15 20:58N 35°36' E 140°05'0 0.0
2018-Feb-15 20:29N 35°36' E 140°05'3 5.9
2018-Feb-15 20:00N 35°35' E 140°02'816.8
2018-Feb-15 19:31N 35°30' E 139°54'815.6
2018-Feb-15 19:01N 35°25' E 139°47'612.5
2018-Feb-15 18:30N 35°19' E 139°44'612.0
2018-Feb-15 18:00N 35°13' E 139°47'815.5
2018-Feb-15 17:30N 35°06' E 139°44'918.2
2018-Feb-15 17:00N 34°59' E 139°36'918.0
2018-Feb-15 16:30N 34°54' E 139°27'1019.1
2018-Feb-15 15:58N 34°48' E 139°17'919.5
2018-Feb-15 15:30N 34°41' E 139°09'1018.9
2018-Feb-15 14:59N 34°35' E 139°01'1019.4
2018-Feb-15 14:28N 34°31' E 138°49'  

Dump ship's entire track history